Louisburg, Minnesota
Current Conditions -  °F | °C
As of 4:13 PM on Monday 20 Oct 2014 (Local Time) from KDXX Reporting Station
Clear Clear  
Wind Chill: 70°   Ceiling: Unl
Heat Index: 70°   Visibility: 10mi
Dew Point: 37°   Wind: 7mph
Humidity: 31%   Direction: 340°NNW
Pressure: 30.02"   Gusts: 13mph
Location:  44.9929°N, 96.1617°W
Report Text: KDXX 202113Z AUTO 34006G11KT 10SM CLR 21/03 A3002 RMK AO2
Loading
Personal Weather Stations






























Interactive Weather Map
Tropical Storm Tracking
New forecast layout! Learn more

10-Day Weather Forecast

Advertisements
Track Severe Weather on mobile